Terminal Aerodrome Forecast
Issued by NWS St Louis, MO

Home | Current Version | Previous Version | Text Only | Print | Product List | Glossary Off
Versions: 1 2 3 4 5 6 7 8 9 10 11 12 13 14 15 16 17 18 19 20 21 22 23 24 25 26 27 28 29 30 31

000
FTUS43 KLSX 202000 AAA
TAFSTL
TAF AMD
KSTL 202011Z 2020/2124 14010KT P6SM SCT060 BKN250
     FM210100 17006KT P6SM SCT090
     FM211300 23010KT P6SM SCT040=

USA.gov is the U.S. government's official web portal to all federal, state and local government web resources and services.